Time,TemperatureF,DewpointF,PressureIn,WindDirection,WindDirectionDegrees,WindSpeedMPH,WindSpeedGustMPH,Humidity,HourlyPrecipIn,Conditions,Clouds,dailyrainin,SoftwareType,DateUTC
2013-10-18 00:07:00,59.7,48.7,29.95,SE,135,6.3,-999.0,67,-99.99,,,0.00,Acu-Link.com,2013-10-18 05:07:00,
2013-10-18 00:22:00,59.4,48.4,29.95,SE,135,4.7,-999.0,67,-99.99,,,0.00,Acu-Link.com,2013-10-18 05:22:00,
2013-10-18 00:37:00,58.5,48.7,29.94,SSE,157,5.1,-999.0,70,-99.99,,,0.00,Acu-Link.com,2013-10-18 05:37:00,
2013-10-18 00:53:00,57.7,48.4,29.94,SSE,157,6.3,-999.0,71,-99.99,,,0.00,Acu-Link.com,2013-10-18 05:53:00,
2013-10-18 01:08:00,58.1,48.7,29.94,SE,135,4.7,-999.0,71,-99.99,,,0.00,Acu-Link.com,2013-10-18 06:08:00,
2013-10-18 01:24:00,58.8,49.1,29.94,SSE,157,6.7,-999.0,70,-99.99,,,0.00,Acu-Link.com,2013-10-18 06:24:00,
2013-10-18 01:39:00,58.8,49.1,29.94,SSE,157,6.7,-999.0,70,-99.99,,,0.00,Acu-Link.com,2013-10-18 06:39:00,
2013-10-18 01:54:00,58.8,49.4,29.94,South,180,6.7,-999.0,71,-99.99,,,0.00,Acu-Link.com,2013-10-18 06:54:00,
2013-10-18 02:09:00,58.5,49.5,29.94,SSE,157,6.7,-999.0,72,-99.99,,,0.00,Acu-Link.com,2013-10-18 07:09:00,
2013-10-18 02:25:00,57.4,49.2,29.94,SE,135,4.7,-999.0,74,-99.99,,,0.00,Acu-Link.com,2013-10-18 07:25:00,
2013-10-18 02:40:00,56.7,48.8,29.94,ESE,112,6.3,-999.0,75,-99.99,,,0.00,Acu-Link.com,2013-10-18 07:40:00,
2013-10-18 02:55:00,55.8,48.7,29.93,ESE,112,0.0,-999.0,77,-99.99,,,0.00,Acu-Link.com,2013-10-18 07:55:00,
2013-10-18 03:11:00,55.6,48.8,29.94,ESE,112,1.6,-999.0,78,-99.99,,,0.00,Acu-Link.com,2013-10-18 08:11:00,
2013-10-18 03:26:00,54.5,48.8,29.94,ENE,67,0.0,-999.0,81,-99.99,,,0.00,Acu-Link.com,2013-10-18 08:26:00,
2013-10-18 03:41:00,53.1,48.7,29.94,ENE,67,2.2,-999.0,85,-99.99,,,0.00,Acu-Link.com,2013-10-18 08:41:00,
2013-10-18 03:57:00,52.9,49.1,29.94,ESE,112,1.1,-999.0,87,-99.99,,,0.00,Acu-Link.com,2013-10-18 08:57:00,
2013-10-18 04:12:00,55.2,49.8,29.94,ESE,112,0.0,-999.0,82,-99.99,,,0.00,Acu-Link.com,2013-10-18 09:12:00,
2013-10-18 04:27:00,55.4,50.0,29.93,ENE,67,4.3,-999.0,82,-99.99,,,0.00,Acu-Link.com,2013-10-18 09:27:00,
2013-10-18 04:43:00,55.0,50.0,29.91,SE,135,4.7,-999.0,83,-99.99,,,0.00,Acu-Link.com,2013-10-18 09:43:00,
2013-10-18 04:59:00,55.2,50.5,29.91,SSE,157,6.7,-999.0,84,-99.99,,,0.00,Acu-Link.com,2013-10-18 09:59:00,
2013-10-18 05:14:00,54.7,50.3,29.90,SE,135,6.3,-999.0,85,-99.99,,,0.00,Acu-Link.com,2013-10-18 10:14:00,
2013-10-18 05:30:00,54.7,49.9,29.91,SE,135,5.8,-999.0,84,-99.99,,,0.00,Acu-Link.com,2013-10-18 10:30:00,
2013-10-18 05:47:00,55.2,50.1,29.89,ESE,112,6.7,-999.0,83,-99.99,,,0.00,Acu-Link.com,2013-10-18 10:47:00,
2013-10-18 06:02:00,55.6,50.2,29.89,SE,135,7.8,-999.0,82,-99.99,,,0.00,Acu-Link.com,2013-10-18 11:02:00,
2013-10-18 06:17:00,55.6,49.8,29.89,ESE,112,7.8,-999.0,81,-99.99,,,0.00,Acu-Link.com,2013-10-18 11:17:00,
2013-10-18 06:32:00,55.8,50.0,29.88,SE,135,6.7,-999.0,81,-99.99,,,0.00,Acu-Link.com,2013-10-18 11:32:00,
2013-10-18 06:47:00,56.1,50.0,29.88,ESE,112,2.7,-999.0,80,-99.99,,,0.00,Acu-Link.com,2013-10-18 11:47:00,
2013-10-18 07:03:00,55.4,51.6,29.89,ESE,112,2.2,-999.0,87,-99.99,,,0.00,Acu-Link.com,2013-10-18 12:03:00,
2013-10-18 07:18:00,53.6,53.0,29.90,ESE,112,8.3,-999.0,98,-99.99,,,0.01,Acu-Link.com,2013-10-18 12:18:00,
2013-10-18 07:33:00,53.4,52.9,29.89,ESE,112,1.1,-999.0,98,-99.99,,,0.04,Acu-Link.com,2013-10-18 12:33:00,
2013-10-18 07:49:00,53.4,52.9,29.90,NNE,22,2.7,-999.0,98,-99.99,,,0.04,Acu-Link.com,2013-10-18 12:49:00,
2013-10-18 08:05:00,53.4,52.9,29.91,East,90,5.1,-999.0,98,-99.99,,,0.04,Acu-Link.com,2013-10-18 13:05:00,
2013-10-18 08:20:00,53.8,53.2,29.91,ESE,112,5.1,-999.0,98,-99.99,,,0.04,Acu-Link.com,2013-10-18 13:20:00,
2013-10-18 08:36:00,54.1,53.6,29.91,East,90,1.1,-999.0,98,-99.99,,,0.04,Acu-Link.com,2013-10-18 13:36:00,
2013-10-18 08:51:00,54.3,53.8,29.91,ENE,67,1.6,-999.0,98,-99.99,,,0.04,Acu-Link.com,2013-10-18 13:51:00,
2013-10-18 09:06:00,54.9,54.3,29.92,ESE,112,4.7,-999.0,98,-99.99,,,0.04,Acu-Link.com,2013-10-18 14:06:00,
2013-10-18 09:22:00,55.0,54.5,29.93,ESE,112,4.7,-999.0,98,-99.99,,,0.04,Acu-Link.com,2013-10-18 14:22:00,
2013-10-18 09:37:00,55.2,54.7,29.93,East,90,7.4,-999.0,98,-99.99,,,0.04,Acu-Link.com,2013-10-18 14:37:00,
2013-10-18 09:53:00,55.6,55.0,29.93,SSE,157,0.0,-999.0,98,-99.99,,,0.04,Acu-Link.com,2013-10-18 14:53:00,
2013-10-18 10:08:00,55.8,55.2,29.93,East,90,2.2,-999.0,98,-99.99,,,0.04,Acu-Link.com,2013-10-18 15:08:00,
2013-10-18 10:24:00,55.8,55.2,29.93,SE,135,1.1,-999.0,98,-99.99,,,0.04,Acu-Link.com,2013-10-18 15:24:00,
2013-10-18 10:39:00,55.6,55.0,29.94,SE,135,1.1,-999.0,98,-99.99,,,0.04,Acu-Link.com,2013-10-18 15:39:00,
2013-10-18 10:54:00,55.8,55.2,29.95,SSE,157,1.1,-999.0,98,-99.99,,,0.04,Acu-Link.com,2013-10-18 15:54:00,
2013-10-18 11:10:00,55.9,55.4,29.95,SSE,157,6.7,-999.0,98,-99.99,,,0.04,Acu-Link.com,2013-10-18 16:10:00,
2013-10-18 11:25:00,56.1,55.6,29.94,ESE,112,9.4,-999.0,98,-99.99,,,0.05,Acu-Link.com,2013-10-18 16:25:00,
2013-10-18 11:40:00,56.3,52.8,29.94,East,90,5.1,-999.0,88,-99.99,,,0.05,Acu-Link.com,2013-10-18 16:40:00,
2013-10-18 11:56:00,56.5,48.7,29.94,ESE,112,6.3,-999.0,75,-99.99,,,0.05,Acu-Link.com,2013-10-18 16:56:00,
2013-10-18 12:11:00,56.3,48.1,29.94,ESE,112,5.8,-999.0,74,-99.99,,,0.05,Acu-Link.com,2013-10-18 17:11:00,
2013-10-18 12:27:00,56.3,46.3,29.94,SE,135,0.0,-999.0,69,-99.99,,,0.05,Acu-Link.com,2013-10-18 17:27:00,
2013-10-18 12:42:00,57.0,47.3,29.94,NNE,22,1.1,-999.0,70,-99.99,,,0.05,Acu-Link.com,2013-10-18 17:42:00,
2013-10-18 13:00:00,56.8,48.6,29.94,North,0,3.8,-999.0,74,-99.99,,,0.06,Acu-Link.com,2013-10-18 18:00:00,
2013-10-18 13:16:00,55.8,51.3,29.94,NNE,22,8.3,-999.0,85,-99.99,,,0.09,Acu-Link.com,2013-10-18 18:16:00,
2013-10-18 13:31:00,53.2,52.7,29.94,NNE,22,6.7,-999.0,98,-99.99,,,0.12,Acu-Link.com,2013-10-18 18:31:00,
2013-10-18 13:46:00,51.6,51.1,29.95,North,0,11.0,-999.0,98,-99.99,,,0.12,Acu-Link.com,2013-10-18 18:46:00,
2013-10-18 14:01:00,50.2,49.6,29.95,NNE,22,18.1,-999.0,98,-99.99,,,0.12,Acu-Link.com,2013-10-18 19:01:00,
2013-10-18 14:17:00,49.5,48.9,29.96,NNE,22,11.9,-999.0,98,-99.99,,,0.13,Acu-Link.com,2013-10-18 19:17:00,
2013-10-18 14:32:00,48.6,48.0,29.97,NW,315,14.1,-999.0,98,-99.99,,,0.15,Acu-Link.com,2013-10-18 19:32:00,
2013-10-18 14:47:00,48.0,47.5,29.97,NNE,22,15.4,-999.0,98,-99.99,,,0.16,Acu-Link.com,2013-10-18 19:47:00,
2013-10-18 15:02:00,47.5,46.9,29.98,NNE,22,12.5,-999.0,98,-99.99,,,0.16,Acu-Link.com,2013-10-18 20:02:00,
2013-10-18 15:18:00,46.8,46.2,29.99,NNE,22,15.4,-999.0,98,-99.99,,,0.20,Acu-Link.com,2013-10-18 20:18:00,
2013-10-18 15:33:00,46.4,45.9,30.00,NNE,22,15.0,-999.0,98,-99.99,,,0.20,Acu-Link.com,2013-10-18 20:33:00,
2013-10-18 15:48:00,45.5,45.0,30.01,NNW,337,17.0,-999.0,98,-99.99,,,0.20,Acu-Link.com,2013-10-18 20:48:00,
2013-10-18 16:03:00,44.8,44.2,30.02,NE,45,20.6,-999.0,98,-99.99,,,0.22,Acu-Link.com,2013-10-18 21:03:00,
2013-10-18 16:19:00,43.9,43.4,30.04,North,0,16.1,-999.0,98,-99.99,,,0.26,Acu-Link.com,2013-10-18 21:19:00,
2013-10-18 16:34:00,43.3,42.8,30.05,NE,45,10.3,-999.0,98,-99.99,,,0.27,Acu-Link.com,2013-10-18 21:34:00,
2013-10-18 16:49:00,43.2,42.6,30.05,NNE,22,14.1,-999.0,98,-99.99,,,0.27,Acu-Link.com,2013-10-18 21:49:00,
2013-10-18 17:04:00,42.8,42.3,30.07,NNE,22,18.6,-999.0,98,-99.99,,,0.30,Acu-Link.com,2013-10-18 22:04:00,
2013-10-18 17:19:00,42.8,42.3,30.07,NE,45,12.5,-999.0,98,-99.99,,,0.31,Acu-Link.com,2013-10-18 22:19:00,
2013-10-18 17:34:00,43.0,42.5,30.08,NNW,337,19.0,-999.0,98,-99.99,,,0.31,Acu-Link.com,2013-10-18 22:34:00,
2013-10-18 17:50:00,43.3,42.8,30.09,NNE,22,22.1,-999.0,98,-99.99,,,0.31,Acu-Link.com,2013-10-18 22:50:00,
2013-10-18 18:05:00,43.5,43.0,30.09,East,90,11.4,-999.0,98,-99.99,,,0.31,Acu-Link.com,2013-10-18 23:05:00,
2013-10-18 18:20:00,43.5,43.0,30.09,NE,45,11.9,-999.0,98,-99.99,,,0.31,Acu-Link.com,2013-10-18 23:20:00,
2013-10-18 18:36:00,43.3,42.8,30.10,North,0,13.4,-999.0,98,-99.99,,,0.31,Acu-Link.com,2013-10-18 23:36:00,
2013-10-18 18:52:00,43.3,42.8,30.11,North,0,8.9,-999.0,98,-99.99,,,0.31,Acu-Link.com,2013-10-18 23:52:00,
2013-10-18 19:07:00,43.3,42.8,30.12,NE,45,9.8,-999.0,98,-99.99,,,0.31,Acu-Link.com,2013-10-19 00:07:00,
2013-10-18 19:23:00,42.8,42.3,30.12,North,0,12.5,-999.0,98,-99.99,,,0.31,Acu-Link.com,2013-10-19 00:23:00,
2013-10-18 19:38:00,42.8,42.3,30.13,North,0,6.7,-999.0,98,-99.99,,,0.31,Acu-Link.com,2013-10-19 00:38:00,
2013-10-18 19:53:00,41.9,41.4,30.14,North,0,13.0,-999.0,98,-99.99,,,0.31,Acu-Link.com,2013-10-19 00:53:00,
2013-10-18 20:08:00,41.7,41.2,30.15,NNW,337,8.3,-999.0,98,-99.99,,,0.31,Acu-Link.com,2013-10-19 01:08:00,
2013-10-18 20:23:00,42.1,41.6,30.16,NW,315,10.3,-999.0,98,-99.99,,,0.31,Acu-Link.com,2013-10-19 01:23:00,
2013-10-18 20:38:00,42.4,41.9,30.17,NNE,22,9.8,-999.0,98,-99.99,,,0.31,Acu-Link.com,2013-10-19 01:38:00,
2013-10-18 20:54:00,42.6,41.3,30.17,WNW,292,13.0,-999.0,95,-99.99,,,0.31,Acu-Link.com,2013-10-19 01:54:00,
2013-10-18 21:09:00,42.6,41.0,30.18,NNW,337,14.5,-999.0,94,-99.99,,,0.31,Acu-Link.com,2013-10-19 02:09:00,
2013-10-18 21:24:00,42.1,40.8,30.18,NNE,22,9.8,-999.0,95,-99.99,,,0.31,Acu-Link.com,2013-10-19 02:24:00,
2013-10-18 21:39:00,41.9,40.8,30.18,NNE,22,8.9,-999.0,96,-99.99,,,0.31,Acu-Link.com,2013-10-19 02:39:00,
2013-10-18 21:54:00,42.1,41.0,30.18,North,0,7.8,-999.0,96,-99.99,,,0.31,Acu-Link.com,2013-10-19 02:54:00,
2013-10-18 22:10:00,41.5,41.0,30.18,NNW,337,9.8,-999.0,98,-99.99,,,0.31,Acu-Link.com,2013-10-19 03:10:00,
2013-10-18 22:25:00,40.8,40.3,30.19,NNW,337,4.7,-999.0,98,-99.99,,,0.31,Acu-Link.com,2013-10-19 03:25:00,
2013-10-18 22:40:00,40.1,39.6,30.19,NNW,337,1.1,-999.0,98,-99.99,,,0.31,Acu-Link.com,2013-10-19 03:40:00,
2013-10-18 22:55:00,39.6,39.0,30.20,NNE,22,1.6,-999.0,98,-99.99,,,0.31,Acu-Link.com,2013-10-19 03:55:00,
2013-10-18 23:10:00,39.4,38.9,30.20,West,270,2.2,-999.0,98,-99.99,,,0.31,Acu-Link.com,2013-10-19 04:10:00,
2013-10-18 23:26:00,38.8,38.3,30.20,NNW,337,0.0,-999.0,98,-99.99,,,0.31,Acu-Link.com,2013-10-19 04:26:00,
2013-10-18 23:41:00,38.3,37.8,30.20,WNW,292,0.0,-999.0,98,-99.99,,,0.31,Acu-Link.com,2013-10-19 04:41:00,
2013-10-18 23:57:00,37.8,37.2,30.20,WNW,292,0.0,-999.0,98,-99.99,,,0.31,Acu-Link.com,2013-10-19 04:57:00,